Time;durP1;ratioP1;P1;durP2;ratioP2;P2;SDS_P1;SDS_P2;PMS_P1;PMS_P2;Temp;Humidity;BMP_temperature;BMP_pressure;BME280_temperature;BME280_humidity;BME280_pressure;Samples;Min_cycle;Max_cycle;Signal;HPM_P1;HPM_P2
2022/01/18 00:00:15;;;;;;;1.47;1.00;;;;;;;3.13;100.00;99910.69;4974307;28;20389;-54
2022/01/18 00:02:40;;;;;;;2.03;1.50;;;;;;;3.08;100.00;99913.09;4986131;28;20113;-53
2022/01/18 00:05:15;;;;;;;2.63;1.13;;;;;;;3.15;100.00;99912.44;4985795;28;20473;-52
2022/01/18 00:07:42;;;;;;;2.90;1.42;;;;;;;3.13;100.00;99923.38;4985508;28;20362;-53
2022/01/18 00:10:09;;;;;;;4.07;1.10;;;;;;;3.20;100.00;99918.53;4983448;28;20042;-52
2022/01/18 00:15:28;;;;;;;3.27;1.27;;;;;;;3.17;100.00;99915.03;4984886;28;20149;-51
2022/01/18 00:18:05;;;;;;;3.53;1.50;;;;;;;3.21;100.00;99922.78;4986391;28;20042;-55
2022/01/18 00:21:00;;;;;;;3.80;1.70;;;;;;;3.23;100.00;99925.34;4986103;28;20029;-53
2022/01/18 00:23:26;;;;;;;3.70;1.40;;;;;;;3.22;100.00;99933.78;4983734;28;20684;-53
2022/01/18 00:25:56;;;;;;;3.00;1.30;;;;;;;3.22;100.00;99942.22;4984415;28;20451;-53
2022/01/18 00:28:23;;;;;;;2.60;1.37;;;;;;;3.18;100.00;99947.19;4986883;28;20041;-54
2022/01/18 00:33:48;;;;;;;3.53;2.40;;;;;;;3.11;100.00;99948.63;4983452;28;20686;-52
2022/01/18 00:39:11;;;;;;;4.33;1.87;;;;;;;3.10;100.00;99954.50;4982353;28;20035;-54
2022/01/18 00:41:38;;;;;;;4.70;1.30;;;;;;;3.12;100.00;99965.56;4979649;28;20066;-53
2022/01/18 00:44:04;;;;;;;3.30;1.53;;;;;;;3.04;100.00;99967.00;4981671;28;20061;-52
2022/01/18 00:46:31;;;;;;;2.10;1.57;;;;;;;2.99;100.00;99958.38;4983640;28;20367;-52
2022/01/18 00:49:01;;;;;;;3.10;1.33;;;;;;;3.00;100.00;99974.44;4981011;28;20065;-52
2022/01/18 00:51:28;;;;;;;3.13;1.47;;;;;;;2.91;100.00;100000.34;4980163;28;20037;-51
2022/01/18 00:53:57;;;;;;;15.23;3.70;;;;;;;2.94;100.00;100009.69;4984897;28;20556;-56
2022/01/18 00:56:27;;;;;;;4.40;1.73;;;;;;;2.93;100.00;99987.72;4984041;28;20100;-55
2022/01/18 00:58:53;;;;;;;6.43;1.47;;;;;;;2.89;100.00;99999.41;4979797;28;20398;-55
2022/01/18 01:01:22;;;;;;;5.30;1.70;;;;;;;2.93;100.00;100008.00;4982449;28;20042;-54
2022/01/18 01:03:48;;;;;;;3.37;1.80;;;;;;;2.84;100.00;100015.28;4985705;28;20038;-54
2022/01/18 01:06:14;;;;;;;3.97;1.60;;;;;;;2.87;100.00;100030.56;4982917;28;20041;-55
2022/01/18 01:08:40;;;;;;;3.30;2.10;;;;;;;2.91;100.00;100040.84;4978843;28;20042;-56
2022/01/18 01:11:07;;;;;;;3.33;1.70;;;;;;;2.93;100.00;100038.38;4983201;28;20451;-55
2022/01/18 01:13:34;;;;;;;5.07;1.87;;;;;;;2.94;100.00;100029.97;4986543;28;20044;-54
2022/01/18 01:34:59;;;;;;;5.17;2.37;;;;;;;2.62;100.00;100044.06;4985020;28;20057;-55
2022/01/18 01:45:20;;;;;;;2.60;1.53;;;;;;;2.43;100.00;100041.66;4982369;28;20143;-53
2022/01/18 01:47:50;;;;;;;11.63;2.80;;;;;;;2.50;100.00;100059.69;4983265;28;20086;-55
2022/01/18 01:50:19;;;;;;;5.47;2.47;;;;;;;2.48;100.00;100063.81;4986873;28;20369;-53
2022/01/18 01:52:46;;;;;;;6.77;2.23;;;;;;;2.45;100.00;100033.34;4988730;28;20076;-54
2022/01/18 01:55:13;;;;;;;9.13;1.83;;;;;;;2.44;100.00;100039.19;4984023;28;20093;-53
2022/01/18 01:57:38;;;;;;;7.20;1.90;;;;;;;2.41;100.00;100033.19;4986457;28;20506;-52
2022/01/18 02:00:10;;;;;;;4.70;2.80;;;;;;;2.42;100.00;100038.28;4991587;28;20034;-54
2022/01/18 02:02:36;;;;;;;7.00;2.10;;;;;;;2.37;100.00;100049.06;4988410;28;20117;-53
2022/01/18 02:05:04;;;;;;;4.60;2.10;;;;;;;2.32;100.00;100038.75;4985571;28;20473;-54
2022/01/18 02:07:31;;;;;;;12.63;3.40;;;;;;;2.25;100.00;100036.78;4988155;28;20061;-53
2022/01/18 02:09:57;;;;;;;5.53;2.03;;;;;;;2.19;100.00;100040.00;4991582;28;20057;-55
2022/01/18 02:12:23;;;;;;;4.67;2.60;;;;;;;2.27;100.00;100038.59;4986377;28;20396;-57
2022/01/18 02:14:56;;;;;;;7.83;2.40;;;;;;;2.23;100.00;100035.91;4988687;28;20064;-54
2022/01/18 02:22:51;;;;;;;9.60;2.17;;;;;;;2.22;100.00;100041.75;4986929;28;20069;-54
2022/01/18 02:25:17;;;;;;;7.97;2.60;;;;;;;2.19;100.00;100042.50;4986996;28;20046;-57
2022/01/18 02:27:42;;;;;;;5.20;1.97;;;;;;;2.17;100.00;100038.19;4988384;28;20034;-54
2022/01/18 02:30:08;;;;;;;7.43;2.10;;;;;;;2.16;100.00;100041.53;4988490;28;20030;-54
2022/01/18 02:32:34;;;;;;;6.13;2.20;;;;;;;2.12;100.00;100040.53;4987038;28;20057;-53
2022/01/18 02:35:00;;;;;;;9.33;2.87;;;;;;;2.09;100.00;100039.56;4985938;28;20034;-53
2022/01/18 02:37:27;;;;;;;5.40;2.07;;;;;;;2.01;100.00;100040.97;4990770;28;20029;-54
2022/01/18 02:39:52;;;;;;;2.73;2.10;;;;;;;1.93;100.00;100037.28;4987999;28;20038;-54
2022/01/18 02:42:27;;;;;;;3.60;2.50;;;;;;;1.88;100.00;100037.09;4984842;28;20041;-55
2022/01/18 02:44:53;;;;;;;7.15;2.03;;;;;;;1.84;100.00;100040.31;4986157;28;20106;-53
2022/01/18 02:47:20;;;;;;;8.97;3.70;;;;;;;1.86;100.00;100046.31;4990083;28;20184;-53
2022/01/18 02:49:47;;;;;;;8.67;2.23;;;;;;;1.86;100.00;100053.03;4986101;28;20044;-54
2022/01/18 02:52:13;;;;;;;5.67;2.50;;;;;;;1.81;100.00;100052.84;4984539;28;20040;-53
2022/01/18 02:54:38;;;;;;;9.40;2.80;;;;;;;1.85;100.00;100054.69;4988194;28;20129;-54
2022/01/18 02:57:06;;;;;;;6.70;3.13;;;;;;;1.80;100.00;100054.53;4988863;28;20041;-55
2022/01/18 02:59:43;;;;;;;4.60;2.37;;;;;;;1.79;100.00;100054.44;4984775;28;20101;-53
2022/01/18 03:05:08;;;;;;;4.73;1.90;;;;;;;1.80;100.00;100062.09;4988792;28;20092;-53
2022/01/18 03:07:34;;;;;;;6.23;3.10;;;;;;;1.77;100.00;100076.28;4986071;28;20030;-54
2022/01/18 03:09:59;;;;;;;3.57;2.10;;;;;;;1.74;100.00;100073.66;4984042;28;20030;-55
2022/01/18 03:12:25;;;;;;;4.60;1.80;;;;;;;1.76;100.00;100077.97;4985835;28;20030;-54
2022/01/18 03:14:50;;;;;;;8.50;2.60;;;;;;;1.82;100.00;100075.66;4988910;28;20780;-52
2022/01/18 03:17:16;;;;;;;4.97;2.00;;;;;;;1.90;100.00;100085.22;4986934;28;20062;-53
2022/01/18 03:19:41;;;;;;;4.47;2.53;;;;;;;1.87;100.00;100085.94;4986446;28;20078;-52
2022/01/18 03:22:07;;;;;;;3.97;1.83;;;;;;;1.82;100.00;100084.94;4984683;28;20033;-56
2022/01/18 03:25:00;;;;;;;4.20;2.90;;;;;;;1.83;100.00;100079.03;4985528;28;20350;-52
2022/01/18 03:30:11;;;;;;;7.80;1.47;;;;;;;1.78;100.00;100078.03;4984030;28;20060;-56
2022/01/18 03:32:37;;;;;;;8.83;2.23;;;;;;;1.73;100.00;100080.38;4985634;28;20030;-53
2022/01/18 03:35:05;;;;;;;4.70;2.00;;;;;;;1.76;100.00;100077.09;4987322;28;20221;-55
2022/01/18 03:37:30;;;;;;;5.23;1.90;;;;;;;1.78;100.00;100096.56;4984642;28;20042;-56
2022/01/18 03:39:56;;;;;;;3.00;1.50;;;;;;;1.78;100.00;100098.25;4983773;28;20120;-55
2022/01/18 03:42:42;;;;;;;10.20;2.10;;;;;;;1.86;100.00;100106.13;4985179;28;20338;-53
2022/01/18 03:45:10;;;;;;;8.80;1.95;;;;;;;1.87;100.00;100118.81;5017829;28;20040;-53
2022/01/18 03:47:36;;;;;;;6.77;3.47;;;;;;;1.76;100.00;100118.41;4982718;28;20058;-52
2022/01/18 03:50:04;;;;;;;12.27;2.10;;;;;;;1.76;100.00;100122.59;4982772;28;20027;-53
2022/01/18 03:52:29;;;;;;;6.30;2.10;;;;;;;1.70;100.00;100120.69;4984877;28;20030;-52
2022/01/18 03:54:55;;;;;;;4.77;2.33;;;;;;;1.71;100.00;100134.19;4984955;28;20070;-53
2022/01/18 03:57:40;;;;;;;;;;;;;;;1.78;100.00;100131.94;4982122;28;20092;-52
2022/01/18 04:00:09;;;;;;;3.27;1.30;;;;;;;1.79;100.00;100137.88;4982944;28;20348;-54
2022/01/18 04:02:34;;;;;;;5.37;2.00;;;;;;;1.80;100.00;100139.63;4984571;28;20480;-57
2022/01/18 04:05:01;;;;;;;6.47;1.63;;;;;;;1.77;100.00;100135.31;4985563;28;20116;-58
2022/01/18 04:07:26;;;;;;;3.07;2.03;;;;;;;1.73;100.00;100142.72;4982100;28;20026;-54
2022/01/18 04:09:52;;;;;;;2.40;1.20;;;;;;;1.73;100.00;100130.94;4983160;28;20536;-57
2022/01/18 04:12:17;;;;;;;5.03;1.63;;;;;;;1.72;100.00;100135.91;4986724;28;20034;-57
2022/01/18 04:14:44;;;;;;;4.80;1.43;;;;;;;1.71;100.00;100152.75;4985208;28;20643;-58
2022/01/18 04:27:46;;;;;;;4.17;1.63;;;;;;;1.58;100.00;100158.09;4983337;28;20105;-54
2022/01/18 04:30:11;;;;;;;4.93;1.70;;;;;;;1.62;100.00;100148.97;4986578;28;20041;-54
2022/01/18 04:32:37;;;;;;;8.63;2.43;;;;;;;1.64;100.00;100147.38;4986937;28;20026;-54
2022/01/18 04:35:03;;;;;;;6.70;1.97;;;;;;;1.65;100.00;100160.09;4985109;28;20184;-53
2022/01/18 04:37:29;;;;;;;5.27;1.90;;;;;;;1.64;100.00;100155.84;4983302;28;20030;-53
2022/01/18 04:39:57;;;;;;;9.10;2.37;;;;;;;1.57;100.00;100156.38;4986527;28;20053;-53
2022/01/18 04:50:50;;;;;;;8.30;1.97;;;;;;;1.53;100.00;100169.69;4983142;28;20042;-53
2022/01/18 04:53:16;;;;;;;5.43;1.80;;;;;;;1.57;100.00;100181.63;4981940;28;20057;-53
2022/01/18 04:55:42;;;;;;;6.37;2.00;;;;;;;1.60;100.00;100183.44;4981668;28;20050;-51
2022/01/18 04:58:07;;;;;;;5.37;2.80;;;;;;;1.65;100.00;100190.44;4982391;28;20176;-55
2022/01/18 05:00:33;;;;;;;4.87;2.50;;;;;;;1.66;100.00;100197.19;4983786;28;20512;-52
2022/01/18 05:02:58;;;;;;;7.93;3.03;;;;;;;1.67;100.00;100193.00;4981646;28;20030;-54
2022/01/18 05:05:26;;;;;;;7.87;2.50;;;;;;;1.64;100.00;100190.34;4981780;28;20038;-53
2022/01/18 05:07:53;;;;;;;8.27;2.60;;;;;;;1.61;100.00;100192.75;4983245;28;20041;-56
2022/01/18 05:10:22;;;;;;;6.50;2.10;;;;;;;1.57;100.00;100204.38;4983753;28;20081;-54
2022/01/18 05:12:50;;;;;;;10.07;2.93;;;;;;;1.48;100.00;100214.13;4983070;28;20108;-54
2022/01/18 05:23:05;;;;;;;6.27;2.43;;;;;;;1.46;100.00;100213.19;4962549;28;20125;-55
2022/01/18 05:25:31;;;;;;;6.17;3.70;;;;;;;1.52;100.00;100217.66;4964153;28;20033;-56
2022/01/18 05:27:59;;;;;;;9.37;3.80;;;;;;;1.52;100.00;100222.69;4969489;28;20046;-55
2022/01/18 05:30:25;;;;;;;5.43;2.53;;;;;;;1.51;100.00;100224.34;4968774;28;20030;-56
2022/01/18 05:33:09;;;;;;;8.73;2.90;;;;;;;1.54;100.00;100227.00;4967247;28;20039;-56
2022/01/18 05:35:35;;;;;;;6.20;2.43;;;;;;;1.51;100.00;100220.97;4968081;28;20178;-54
2022/01/18 05:38:01;;;;;;;13.50;2.57;;;;;;;1.54;100.00;100221.09;4969178;28;20133;-55
2022/01/18 05:40:28;;;;;;;8.00;3.73;;;;;;;1.58;100.00;100222.94;4968500;28;20030;-55
2022/01/18 05:42:53;;;;;;;8.67;3.63;;;;;;;1.56;100.00;100215.31;4968450;28;20034;-52
2022/01/18 05:45:20;;;;;;;8.03;3.10;;;;;;;1.63;100.00;100221.47;4965858;28;20348;-53
2022/01/18 05:47:45;;;;;;;10.70;3.27;;;;;;;1.66;100.00;100217.41;4968021;28;20081;-52
2022/01/18 05:50:12;;;;;;;8.10;3.03;;;;;;;1.69;100.00;100216.69;4969242;28;20078;-53
2022/01/18 05:52:37;;;;;;;7.30;3.00;;;;;;;1.77;100.00;100218.72;4964939;28;20061;-52
2022/01/18 05:55:04;;;;;;;7.47;2.47;;;;;;;1.85;100.00;100219.03;4965150;28;20047;-58
2022/01/18 05:57:30;;;;;;;9.13;2.93;;;;;;;1.80;100.00;100193.56;4969738;28;20081;-58
2022/01/18 06:00:02;;;;;;;4.97;2.07;;;;;;;2.00;100.00;100196.03;4988409;28;20417;-56
2022/01/18 06:07:40;;;;;;;6.40;3.63;;;;;;;2.01;100.00;100212.94;4989282;28;20037;-57
2022/01/18 06:10:06;;;;;;;5.47;2.60;;;;;;;2.04;100.00;100215.56;4988429;28;20038;-59
2022/01/18 06:12:32;;;;;;;8.00;3.07;;;;;;;2.16;100.00;100211.03;4986732;28;20045;-60
2022/01/18 06:14:58;;;;;;;3.70;2.90;;;;;;;2.14;100.00;100213.50;4990459;28;20059;-56
2022/01/18 06:17:23;;;;;;;4.53;2.10;;;;;;;2.25;100.00;100214.75;4988793;28;20046;-58
2022/01/18 06:19:48;;;;;;;6.57;2.47;;;;;;;2.15;100.00;100214.34;4987878;28;20416;-56
2022/01/18 06:22:14;;;;;;;8.13;2.33;;;;;;;2.13;100.00;100231.13;4987626;28;20031;-58
2022/01/18 06:24:39;;;;;;;5.07;2.60;;;;;;;2.17;100.00;100230.44;4987862;28;20364;-56
2022/01/18 06:27:07;;;;;;;6.13;2.30;;;;;;;2.14;100.00;100233.72;4990780;28;20110;-59
2022/01/18 06:29:33;;;;;;;4.40;1.87;;;;;;;2.10;100.00;100220.88;4984966;28;20034;-58
2022/01/18 06:31:58;;;;;;;9.77;2.77;;;;;;;2.10;100.00;100223.44;4988663;28;20100;-58
2022/01/18 06:34:23;;;;;;;10.33;2.27;;;;;;;2.19;100.00;100228.84;4987772;28;20052;-57
2022/01/18 06:36:49;;;;;;;6.20;2.30;;;;;;;2.22;100.00;100236.56;4989087;28;20037;-58
2022/01/18 06:39:16;;;;;;;4.73;2.33;;;;;;;2.30;100.00;100232.66;4986796;28;20427;-57
2022/01/18 06:41:43;;;;;;;6.77;1.90;;;;;;;2.25;100.00;100234.13;4985853;28;20073;-58
2022/01/18 06:44:09;;;;;;;6.80;2.40;;;;;;;2.22;100.00;100242.47;4989970;28;20038;-58
2022/01/18 06:46:35;;;;;;;4.00;2.00;;;;;;;2.17;100.00;100238.91;4985534;28;20073;-58
2022/01/18 06:49:00;;;;;;;6.27;2.13;;;;;;;2.13;100.00;100247.16;4987719;28;20038;-56
2022/01/18 06:51:26;;;;;;;5.87;2.07;;;;;;;2.16;100.00;100254.91;4986382;28;20144;-57
2022/01/18 06:53:51;;;;;;;8.13;1.70;;;;;;;2.20;100.00;100266.00;4988892;28;20397;-58
2022/01/18 06:56:20;;;;;;;4.80;2.33;;;;;;;2.18;100.00;100260.88;4988661;28;20034;-57
2022/01/18 06:58:45;;;;;;;5.60;2.00;;;;;;;2.15;100.00;100277.59;4983966;28;20420;-58
2022/01/18 07:01:12;;;;;;;5.70;2.67;;;;;;;2.15;100.00;100282.66;4989467;28;20030;-55
2022/01/18 07:03:38;;;;;;;9.47;2.70;;;;;;;2.08;100.00;100291.66;4988797;28;20058;-55
2022/01/18 07:06:04;;;;;;;3.63;2.03;;;;;;;2.10;100.00;100294.25;4990346;28;20041;-55
2022/01/18 07:08:30;;;;;;;8.07;3.87;;;;;;;2.12;100.00;100295.19;4986922;28;20048;-59
2022/01/18 07:10:57;;;;;;;7.83;2.20;;;;;;;2.14;100.00;100294.44;4987405;28;20886;-54
2022/01/18 07:13:24;;;;;;;4.73;2.23;;;;;;;2.17;100.00;100288.63;4993235;28;20046;-58
2022/01/18 07:15:50;;;;;;;7.40;2.90;;;;;;;2.18;100.00;100300.47;4986687;28;20147;-58
2022/01/18 07:18:16;;;;;;;6.37;2.13;;;;;;;2.25;100.00;100295.72;4989440;28;20544;-59
2022/01/18 07:20:41;;;;;;;5.77;3.23;;;;;;;2.30;100.00;100295.91;4990477;28;20452;-59
2022/01/18 07:23:12;;;;;;;6.17;2.00;;;;;;;2.38;100.00;100289.50;4991474;28;20026;-58
2022/01/18 07:25:44;;;;;;;6.27;2.70;;;;;;;2.38;100.00;100301.31;4988749;28;20145;-59
2022/01/18 07:28:10;;;;;;;10.30;3.03;;;;;;;2.42;100.00;100296.41;4986256;28;20100;-57
2022/01/18 07:30:37;;;;;;;6.93;2.40;;;;;;;2.52;100.00;100292.59;4989519;28;20062;-57
2022/01/18 07:33:06;;;;;;;5.20;2.13;;;;;;;2.52;100.00;100300.19;4987516;28;20481;-57
2022/01/18 07:35:34;;;;;;;5.53;2.20;;;;;;;2.61;100.00;100292.94;4985859;28;20477;-58
2022/01/18 07:38:01;;;;;;;3.47;1.67;;;;;;;2.69;100.00;100297.50;4984188;28;20038;-58
2022/01/18 07:40:30;;;;;;;10.50;2.77;;;;;;;2.80;100.00;100297.91;4989547;28;20433;-57
2022/01/18 07:42:57;;;;;;;8.43;2.00;;;;;;;2.93;100.00;100312.78;4986619;28;20485;-56
2022/01/18 07:45:23;;;;;;;7.63;2.00;;;;;;;2.99;100.00;100314.69;4984816;28;20057;-58
2022/01/18 07:47:49;;;;;;;2.13;1.60;;;;;;;3.04;100.00;100301.41;4985942;28;20038;-57
2022/01/18 07:50:15;;;;;;;7.10;2.00;;;;;;;3.03;100.00;100316.53;4988277;28;20465;-54
2022/01/18 07:52:41;;;;;;;3.77;3.13;;;;;;;3.11;100.00;100326.16;4985576;28;20034;-56
2022/01/18 07:55:07;;;;;;;2.63;2.17;;;;;;;3.15;100.00;100317.84;4984895;28;20038;-57
2022/01/18 07:57:32;;;;;;;2.87;1.37;;;;;;;3.22;100.00;100341.78;4985619;28;20441;-56
2022/01/18 07:59:58;;;;;;;6.40;1.90;;;;;;;3.26;100.00;100330.94;4987834;28;20018;-58
2022/01/18 08:02:24;;;;;;;5.70;1.70;;;;;;;3.30;100.00;100325.19;4985729;28;20038;-56
2022/01/18 08:04:50;;;;;;;3.00;1.40;;;;;;;3.30;100.00;100344.59;4984231;28;20435;-54
2022/01/18 08:07:16;;;;;;;6.40;2.27;;;;;;;3.34;100.00;100326.16;4986063;28;20030;-56
2022/01/18 08:09:41;;;;;;;2.67;1.70;;;;;;;3.38;100.00;100317.84;4985054;28;20042;-58
2022/01/18 08:12:08;;;;;;;3.97;2.03;;;;;;;3.34;100.00;100337.16;4985924;28;20152;-57
2022/01/18 08:14:34;;;;;;;8.67;1.97;;;;;;;3.46;100.00;100346.88;4985712;28;20042;-57
2022/01/18 08:17:04;;;;;;;6.37;2.90;;;;;;;3.42;100.00;100342.50;4987055;28;20070;-54
2022/01/18 08:19:31;;;;;;;4.53;2.00;;;;;;;3.51;100.00;100323.41;4985747;28;20034;-55
2022/01/18 08:21:57;;;;;;;6.50;2.43;;;;;;;3.53;100.00;100324.31;4985216;28;20473;-55
2022/01/18 08:24:23;;;;;;;7.30;3.20;;;;;;;3.56;100.00;100342.22;4987983;28;20026;-59
2022/01/18 08:26:48;;;;;;;6.63;2.20;;;;;;;3.61;100.00;100339.81;4985400;28;20053;-57
2022/01/18 08:29:14;;;;;;;4.63;2.60;;;;;;;3.60;100.00;100366.88;4985539;28;20034;-57
2022/01/18 08:31:42;;;;;;;4.20;3.00;;;;;;;3.63;100.00;100335.66;4986655;28;20038;-55
2022/01/18 08:34:09;;;;;;;5.03;2.90;;;;;;;3.69;100.00;100353.66;4986904;28;20037;-56
2022/01/18 08:36:34;;;;;;;5.63;2.23;;;;;;;3.68;100.00;100339.25;4984855;28;20030;-57
2022/01/18 08:39:00;;;;;;;7.20;4.20;;;;;;;3.80;100.00;100351.47;4985502;28;20602;-59
2022/01/18 08:41:27;;;;;;;8.03;3.40;;;;;;;3.77;100.00;100362.41;4985532;28;20026;-59
2022/01/18 08:43:53;;;;;;;5.00;2.23;;;;;;;3.80;99.61;100365.03;4987484;28;20044;-59
2022/01/18 08:46:18;;;;;;;9.63;2.70;;;;;;;3.83;100.00;100349.06;4983649;28;20142;-57
2022/01/18 08:48:44;;;;;;;4.97;2.80;;;;;;;3.89;100.00;100349.28;4983956;28;20042;-59
2022/01/18 08:51:10;;;;;;;9.97;2.90;;;;;;;3.85;99.68;100337.31;4986938;28;20030;-55
2022/01/18 08:53:37;;;;;;;9.90;2.77;;;;;;;3.95;99.52;100352.00;4986528;28;20497;-59
2022/01/18 08:56:03;;;;;;;9.13;4.20;;;;;;;3.96;99.12;100358.81;4982867;28;20034;-58
2022/01/18 08:58:28;;;;;;;7.47;2.80;;;;;;;3.89;96.55;100351.81;4984434;28;20050;-56
2022/01/18 09:00:55;;;;;;;4.57;3.10;;;;;;;3.96;95.84;100366.44;4988823;28;20037;-57
2022/01/18 09:03:23;;;;;;;7.30;2.93;;;;;;;4.01;96.69;100359.84;4991295;28;20028;-54
2022/01/18 09:05:48;;;;;;;6.93;2.53;;;;;;;4.07;91.53;100355.00;4984941;28;20548;-53
2022/01/18 09:08:14;;;;;;;8.27;2.90;;;;;;;3.97;92.90;100358.88;4984891;28;20052;-58
2022/01/18 09:10:41;;;;;;;5.27;2.17;;;;;;;4.04;92.93;100354.88;4986842;28;20026;-53
2022/01/18 09:13:07;;;;;;;5.63;2.70;;;;;;;3.96;91.66;100369.84;4986279;28;20038;-54
2022/01/18 09:15:32;;;;;;;7.83;3.23;;;;;;;4.04;91.52;100370.97;4980424;28;20089;-56
2022/01/18 09:17:58;;;;;;;4.97;2.10;;;;;;;4.13;91.39;100366.22;4983217;28;20576;-55
2022/01/18 09:20:24;;;;;;;5.37;2.27;;;;;;;4.08;90.89;100367.72;4983934;28;20057;-55
2022/01/18 09:22:52;;;;;;;5.20;2.87;;;;;;;4.21;92.49;100365.59;4983080;28;20030;-56
2022/01/18 09:25:25;;;;;;;5.43;2.40;;;;;;;4.16;90.00;100374.75;4978371;28;20042;-57
2022/01/18 09:27:51;;;;;;;7.73;2.83;;;;;;;4.32;92.10;100388.03;4982007;28;20038;-56
2022/01/18 09:30:17;;;;;;;6.27;2.07;;;;;;;4.31;90.54;100381.22;4982127;28;20500;-56
2022/01/18 09:32:43;;;;;;;7.80;3.30;;;;;;;4.32;90.29;100380.41;4981331;28;20034;-57
2022/01/18 09:35:09;;;;;;;8.00;3.87;;;;;;;4.44;91.60;100374.88;4978558;28;20031;-54
2022/01/18 09:37:35;;;;;;;4.90;2.10;;;;;;;4.45;88.28;100419.78;4981123;28;20038;-55
2022/01/18 09:40:01;;;;;;;5.33;2.23;;;;;;;4.41;89.16;100392.56;4981854;28;20045;-55
2022/01/18 09:42:39;;;;;;;8.17;2.27;;;;;;;4.55;90.57;100388.78;4980364;28;20271;-56
2022/01/18 09:45:08;;;;;;;9.97;2.33;;;;;;;4.51;87.06;100395.44;4979320;28;20502;-57
2022/01/18 09:47:35;;;;;;;6.43;2.67;;;;;;;4.58;87.22;100389.72;4981139;28;20057;-56
2022/01/18 09:50:00;;;;;;;7.73;2.40;;;;;;;4.59;87.34;100386.38;4981796;28;20117;-54
2022/01/18 09:52:26;;;;;;;6.60;2.13;;;;;;;4.48;87.19;100394.47;4979449;28;20036;-57
2022/01/18 09:54:52;;;;;;;4.97;1.60;;;;;;;4.47;87.68;100401.22;4981592;28;20034;-55
2022/01/18 09:57:17;;;;;;;5.97;2.13;;;;;;;4.54;87.68;100407.38;4982195;28;20128;-57
2022/01/18 09:59:43;;;;;;;9.70;1.70;;;;;;;4.42;84.52;100394.25;4982785;28;20046;-57
2022/01/18 10:02:10;;;;;;;3.17;1.43;;;;;;;4.39;79.75;100395.03;4979027;28;20104;-56
2022/01/18 10:04:44;;;;;;;11.23;2.47;;;;;;;4.63;83.85;100396.63;4979347;28;20034;-56
2022/01/18 10:07:10;;;;;;;4.83;2.47;;;;;;;4.62;80.90;100385.66;4980592;28;20037;-57
2022/01/18 10:09:37;;;;;;;6.30;1.73;;;;;;;4.73;81.33;100409.72;4979240;28;20468;-56
2022/01/18 10:12:02;;;;;;;10.97;2.10;;;;;;;4.73;80.25;100391.94;4979926;28;20027;-56
2022/01/18 10:14:29;;;;;;;6.10;2.27;;;;;;;4.69;79.55;100395.19;4986030;28;20076;-58
2022/01/18 10:16:56;;;;;;;4.77;1.80;;;;;;;4.60;77.36;100384.72;4986430;28;20240;-56
2022/01/18 10:19:32;;;;;;;8.40;1.83;;;;;;;4.83;79.99;100388.00;4985890;28;20896;-55
2022/01/18 10:22:09;;;;;;;5.37;3.00;;;;;;;4.87;81.62;100379.69;4983274;28;20034;-58
2022/01/18 10:24:35;;;;;;;7.20;2.67;;;;;;;4.75;78.49;100387.78;4986346;28;20030;-57
2022/01/18 10:27:00;;;;;;;8.33;1.90;;;;;;;4.92;78.96;100390.84;4982500;28;20493;-55
2022/01/18 10:29:32;;;;;;;4.50;1.80;;;;;;;4.73;76.27;100381.75;4981962;28;20132;-57
2022/01/18 10:32:00;;;;;;;4.17;1.67;;;;;;;4.81;78.98;100375.25;4983590;28;20068;-60
2022/01/18 10:37:05;;;;;;;3.00;1.50;;;;;;;4.77;76.67;100364.94;4984113;28;20492;-55
2022/01/18 10:39:41;;;;;;;5.67;1.60;;;;;;;4.94;79.74;100371.41;4983948;28;20034;-55
2022/01/18 10:42:19;;;;;;;9.70;2.03;;;;;;;5.00;78.47;100362.31;4984017;28;20034;-57
2022/01/18 10:44:57;;;;;;;7.67;1.87;;;;;;;4.82;79.58;100397.31;4986150;28;20814;-58
2022/01/18 10:47:23;;;;;;;7.17;1.63;;;;;;;4.59;80.98;100401.63;4983549;28;20038;-57
2022/01/18 10:49:48;;;;;;;6.87;2.00;;;;;;;4.56;83.65;100393.06;4980344;28;20030;-55
2022/01/18 10:52:22;;;;;;;12.30;2.43;;;;;;;4.54;83.65;100399.78;4984413;28;20790;-58
2022/01/18 10:54:54;;;;;;;4.93;1.90;;;;;;;4.50;84.46;100405.53;4983554;28;20049;-57
2022/01/18 10:57:25;;;;;;;5.83;2.17;;;;;;;4.60;85.72;100413.53;4982943;28;20034;-58
2022/01/18 11:00:09;;;;;;;8.27;2.27;;;;;;;4.53;85.71;100387.88;4982941;28;20049;-55
2022/01/18 11:02:37;;;;;;;3.57;2.00;;;;;;;4.46;86.38;100394.41;4983254;28;20046;-57
2022/01/18 11:05:12;;;;;;;6.17;1.83;;;;;;;4.42;87.49;100372.28;4983668;28;20040;-56
2022/01/18 11:07:39;;;;;;;3.35;1.30;;;;;;;4.24;84.13;100386.03;4981381;28;20026;-57
2022/01/18 11:10:06;;;;;;;5.13;2.30;;;;;;;4.27;84.94;100394.63;4981379;28;20534;-56
2022/01/18 11:13:05;;;;;;;6.53;2.40;;;;;;;4.22;88.22;100398.66;4984535;28;20126;-57
2022/01/18 11:15:33;;;;;;;5.53;2.53;;;;;;;4.22;86.12;100405.41;4982287;28;21086;-57
2022/01/18 11:18:06;;;;;;;6.03;3.43;;;;;;;4.27;85.74;100399.69;4979094;28;20034;-57
2022/01/18 11:20:36;;;;;;;6.07;1.90;;;;;;;4.23;86.13;100418.16;4981773;28;20092;-55
2022/01/18 11:23:04;;;;;;;9.93;2.27;;;;;;;4.29;86.00;100418.34;4983293;28;20030;-57
2022/01/18 11:25:30;;;;;;;3.80;2.37;;;;;;;4.28;85.33;100421.72;4985366;28;20743;-57
2022/01/18 11:27:58;;;;;;;5.80;2.20;;;;;;;4.19;85.06;100428.16;4983225;28;20029;-58
2022/01/18 11:30:31;;;;;;;12.07;2.40;;;;;;;4.28;85.74;100420.88;4997844;28;20122;-57
2022/01/18 11:32:59;;;;;;;7.07;3.07;;;;;;;4.25;84.95;100435.97;4985591;28;20034;-55
2022/01/18 11:35:27;;;;;;;4.37;2.20;;;;;;;4.23;85.19;100437.59;4979823;28;20177;-53
2022/01/18 11:38:08;;;;;;;6.73;2.13;;;;;;;4.22;87.19;100424.03;4979267;28;20053;-58
2022/01/18 11:40:51;;;;;;;5.20;2.23;;;;;;;4.16;86.44;100431.44;4983898;28;20456;-57
2022/01/18 11:43:42;;;;;;;4.97;1.77;;;;;;;4.11;87.24;100418.59;4985344;28;20038;-58
2022/01/18 11:46:34;;;;;;;9.83;2.20;;;;;;;4.09;88.33;100419.34;4980803;28;20037;-55
2022/01/18 11:49:13;;;;;;;4.63;2.30;;;;;;;4.13;88.43;100414.44;4982787;28;20046;-59
2022/01/18 11:51:54;;;;;;;6.43;2.50;;;;;;;4.07;89.07;100434.50;4983547;28;20080;-55
2022/01/18 11:55:12;;;;;;;1.90;1.70;;;;;;;4.09;88.97;100429.50;4997428;28;20040;-57
2022/01/18 11:57:31;;;;;;;4.50;2.23;;;;;;;4.19;88.46;100426.47;4977541;28;20357;-57
2022/01/18 12:00:17;;;;;;;7.90;1.60;;;;;;;4.26;89.12;100407.25;4983537;28;20038;-53
2022/01/18 12:02:45;;;;;;;9.10;2.73;;;;;;;4.36;89.09;100400.00;4984047;28;20038;-58
2022/01/18 12:05:21;;;;;;;6.77;2.30;;;;;;;4.41;88.04;100398.47;4982360;28;20420;-58
2022/01/18 12:07:51;;;;;;;5.33;1.60;;;;;;;4.45;88.59;100377.47;4981760;28;20113;-56
2022/01/18 12:10:38;;;;;;;3.13;1.90;;;;;;;4.54;88.79;100409.94;4984377;28;20035;-57
2022/01/18 12:13:11;;;;;;;6.07;2.17;;;;;;;4.66;89.40;100401.84;4981795;28;20521;-57
2022/01/18 12:15:38;;;;;;;6.50;2.40;;;;;;;4.62;88.68;100405.97;4981577;28;20093;-57
2022/01/18 12:18:12;;;;;;;4.63;2.10;;;;;;;4.57;90.83;100423.59;4984330;28;20046;-58
2022/01/18 12:20:42;;;;;;;4.07;2.00;;;;;;;4.53;90.45;100391.28;4984532;28;20034;-60
2022/01/18 12:23:29;;;;;;;7.33;2.40;;;;;;;4.50;91.08;100408.94;4982193;28;20041;-59
2022/01/18 12:26:14;;;;;;;5.77;2.43;;;;;;;4.54;92.75;100405.69;4979197;28;20037;-59
2022/01/18 12:37:10;;;;;;;5.90;2.10;;;;;;;4.50;94.36;100408.94;4978213;28;20354;-60
2022/01/18 12:39:52;;;;;;;2.97;2.30;;;;;;;4.50;93.83;100408.94;4978589;28;20042;-58
2022/01/18 12:45:12;;;;;;;6.53;3.03;;;;;;;4.44;94.61;100416.38;4981505;28;20038;-60
2022/01/18 12:47:50;;;;;;;4.67;1.83;;;;;;;4.50;93.95;100411.47;4979223;28;20191;-58
2022/01/18 12:50:19;;;;;;;9.47;2.27;;;;;;;4.80;93.38;100408.22;4978675;28;20197;-58
2022/01/18 12:52:45;;;;;;;6.73;2.37;;;;;;;5.04;92.89;100417.53;4981000;28;20064;-56
2022/01/18 12:55:54;;;;;;;2.83;2.50;;;;;;;5.33;90.30;100431.13;4980645;28;20153;-59
2022/01/18 12:58:40;;;;;;;3.63;2.43;;;;;;;5.24;87.29;100410.50;4949635;28;20047;-57
2022/01/18 13:01:10;;;;;;;3.37;1.73;;;;;;;5.34;86.80;100409.97;4953577;28;20042;-59
2022/01/18 13:03:35;;;;;;;4.27;2.10;;;;;;;5.46;87.18;100404.38;4952778;28;20089;-60
2022/01/18 13:06:09;;;;;;;7.37;2.67;;;;;;;5.27;85.61;100386.84;4948674;28;20039;-59
2022/01/18 13:08:46;;;;;;;5.27;1.93;;;;;;;5.16;86.96;100388.19;4952133;28;20566;-59